Time;durP1;ratioP1;P1;durP2;ratioP2;P2;SDS_P1;SDS_P2;PMS_P1;PMS_P2;Temp;Humidity;BMP_temperature;BMP_pressure;BME280_temperature;BME280_humidity;BME280_pressure;Samples;Min_cycle;Max_cycle;Signal;HPM_P1;HPM_P2
2021/07/02 00:00:12;;;;;;;12.90;9.25;;;;;;;-143.70;100.00;61379.03;738370;40;20029;-76
2021/07/02 00:00:43;;;;;;;15.38;9.48;;;;;;;-143.70;100.00;61379.03;739091;40;20879;-77
2021/07/02 00:01:13;;;;;;;16.90;9.52;;;;;;;-143.70;100.00;61379.03;738865;40;20157;-77
2021/07/02 00:01:44;;;;;;;16.48;9.48;;;;;;;-143.70;100.00;61379.03;739693;40;20065;-77
2021/07/02 00:02:14;;;;;;;17.98;9.73;;;;;;;-143.70;100.00;61379.03;739384;40;20027;-77
2021/07/02 00:02:46;;;;;;;15.70;9.25;;;;;;;-143.70;100.00;61379.03;735822;40;20030;-76
2021/07/02 00:03:16;;;;;;;15.38;9.25;;;;;;;-143.70;100.00;61379.03;735506;40;20029;-77
2021/07/02 00:03:47;;;;;;;18.52;9.65;;;;;;;-143.70;100.00;61379.03;734430;40;20073;-76
2021/07/02 00:04:18;;;;;;;15.88;8.93;;;;;;;-143.70;100.00;61379.03;737785;40;20076;-77
2021/07/02 00:04:49;;;;;;;17.35;8.55;;;;;;;-143.70;100.00;61379.03;736983;40;20193;-76
2021/07/02 00:05:20;;;;;;;15.50;8.43;;;;;;;-143.70;100.00;61379.03;738397;40;20033;-77
2021/07/02 00:05:50;;;;;;;17.55;9.48;;;;;;;-143.70;100.00;61379.03;730376;40;20057;-77
2021/07/02 00:06:21;;;;;;;14.93;8.82;;;;;;;-143.70;100.00;61379.03;739395;40;20040;-77
2021/07/02 00:06:51;;;;;;;16.05;8.70;;;;;;;-143.70;100.00;61379.03;738699;40;20138;-76
2021/07/02 00:07:22;;;;;;;14.50;8.93;;;;;;;-143.70;100.00;61379.03;739832;40;20037;-76
2021/07/02 00:07:53;;;;;;;12.77;8.57;;;;;;;-143.70;100.00;61379.03;736152;40;20042;-77
2021/07/02 00:08:26;;;;;;;17.48;9.63;;;;;;;-143.70;100.00;61379.03;737651;40;20036;-77
2021/07/02 00:08:57;;;;;;;19.52;8.80;;;;;;;-143.70;100.00;61379.03;734125;40;20034;-77
2021/07/02 00:09:28;;;;;;;14.25;9.07;;;;;;;-143.70;100.00;61379.03;735294;40;20022;-77
2021/07/02 00:09:58;;;;;;;14.40;9.32;;;;;;;-143.70;100.00;61379.03;734959;40;20053;-77
2021/07/02 00:10:29;;;;;;;16.55;9.77;;;;;;;-143.70;100.00;61379.03;736349;40;20083;-77
2021/07/02 00:11:01;;;;;;;18.55;9.52;;;;;;;-143.70;100.00;61379.03;734869;40;20180;-77
2021/07/02 00:11:32;;;;;;;15.30;9.82;;;;;;;-143.70;100.00;61379.03;735119;40;20383;-77
2021/07/02 00:12:03;;;;;;;20.65;10.27;;;;;;;-143.70;100.00;61379.03;736619;40;20100;-75
2021/07/02 00:12:34;;;;;;;14.50;9.05;;;;;;;-143.70;100.00;61379.03;736864;40;20411;-77
2021/07/02 00:13:05;;;;;;;13.13;9.35;;;;;;;-143.70;100.00;61379.03;737387;40;20033;-76
2021/07/02 00:13:37;;;;;;;13.32;8.43;;;;;;;-143.70;100.00;61379.03;739176;40;20403;-75
2021/07/02 00:14:07;;;;;;;16.77;9.05;;;;;;;-143.70;100.00;61379.03;737067;40;20087;-77
2021/07/02 00:14:38;;;;;;;14.35;8.57;;;;;;;-143.70;100.00;61379.03;736155;40;20119;-77
2021/07/02 00:15:09;;;;;;;14.20;8.30;;;;;;;-143.70;100.00;61379.03;734969;40;20099;-76
2021/07/02 00:15:40;;;;;;;12.52;8.48;;;;;;;-143.70;100.00;61379.03;732332;40;20063;-77
2021/07/02 00:16:11;;;;;;;13.95;9.05;;;;;;;-143.70;100.00;61379.03;735091;40;20040;-77
2021/07/02 00:16:41;;;;;;;14.07;8.85;;;;;;;-143.70;100.00;61379.03;734285;40;20089;-77
2021/07/02 00:17:12;;;;;;;13.90;8.82;;;;;;;-143.70;100.00;61379.03;737314;40;20044;-77
2021/07/02 00:17:42;;;;;;;14.48;9.60;;;;;;;-143.70;100.00;61379.03;736420;40;20025;-76
2021/07/02 00:18:13;;;;;;;17.48;9.50;;;;;;;-143.70;100.00;61379.03;737521;40;20025;-77
2021/07/02 00:18:43;;;;;;;15.02;9.23;;;;;;;-143.70;100.00;61379.03;734544;40;20421;-76
2021/07/02 00:19:14;;;;;;;17.48;8.77;;;;;;;-143.70;100.00;61379.03;735983;40;20038;-76
2021/07/02 00:19:45;;;;;;;17.00;9.23;;;;;;;-143.70;100.00;61379.03;736158;40;20065;-77
2021/07/02 00:20:15;;;;;;;16.05;9.25;;;;;;;-143.70;100.00;61379.03;737354;40;20041;-77
2021/07/02 00:20:46;;;;;;;20.92;9.63;;;;;;;-143.70;100.00;61379.03;735960;40;20448;-77
2021/07/02 00:21:16;;;;;;;17.27;8.75;;;;;;;-143.70;100.00;61379.03;735748;40;20360;-76
2021/07/02 00:21:47;;;;;;;15.27;9.43;;;;;;;-143.70;100.00;61379.03;734593;40;20034;-76
2021/07/02 00:22:17;;;;;;;18.58;9.43;;;;;;;-143.70;100.00;61379.03;736825;40;20030;-77
2021/07/02 00:22:48;;;;;;;13.43;8.90;;;;;;;-143.70;100.00;61379.03;736513;40;20084;-76
2021/07/02 00:23:18;;;;;;;14.60;8.85;;;;;;;-143.70;100.00;61379.03;739441;40;20017;-76
2021/07/02 00:23:49;;;;;;;15.90;9.93;;;;;;;-143.70;100.00;61379.03;741075;40;20114;-76
2021/07/02 00:24:19;;;;;;;14.40;8.90;;;;;;;-143.70;100.00;61379.03;740322;40;20035;-75
2021/07/02 00:24:50;;;;;;;13.82;8.75;;;;;;;-143.70;100.00;61379.03;739200;40;20049;-76
2021/07/02 00:25:21;;;;;;;16.50;9.52;;;;;;;-143.70;100.00;61379.03;735905;40;20037;-77
2021/07/02 00:25:52;;;;;;;12.05;7.57;;;;;;;-143.70;100.00;61379.03;737197;40;20042;-76
2021/07/02 00:26:22;;;;;;;13.63;8.93;;;;;;;-143.70;100.00;61379.03;736719;40;20040;-75
2021/07/02 00:26:53;;;;;;;15.05;10.00;;;;;;;-143.70;100.00;61379.03;737438;40;20032;-76
2021/07/02 00:27:23;;;;;;;13.95;8.65;;;;;;;-143.70;100.00;61379.03;740088;40;20031;-76
2021/07/02 00:27:56;;;;;;;13.73;8.32;;;;;;;-143.70;100.00;61379.03;739256;40;20035;-75
2021/07/02 00:28:27;;;;;;;15.93;9.00;;;;;;;-143.70;100.00;61379.03;738637;40;20028;-75
2021/07/02 00:28:57;;;;;;;17.27;9.52;;;;;;;-143.70;100.00;61379.03;739639;40;20040;-75
2021/07/02 00:29:28;;;;;;;17.98;9.60;;;;;;;-143.70;100.00;61379.03;738708;40;20039;-75
2021/07/02 00:29:59;;;;;;;15.75;9.40;;;;;;;-143.70;100.00;61379.03;737547;40;20033;-75
2021/07/02 00:30:29;;;;;;;15.00;8.48;;;;;;;-143.70;100.00;61379.03;736179;40;20041;-75
2021/07/02 00:31:00;;;;;;;16.13;10.27;;;;;;;-143.70;100.00;61379.03;735620;40;20038;-75
2021/07/02 00:31:30;;;;;;;16.10;9.77;;;;;;;-143.70;100.00;61379.03;737480;40;20069;-74
2021/07/02 00:32:01;;;;;;;15.38;8.85;;;;;;;-143.70;100.00;61379.03;736089;40;20010;-76
2021/07/02 00:32:32;;;;;;;12.95;8.80;;;;;;;-143.70;100.00;61379.03;737606;40;20091;-75
2021/07/02 00:33:03;;;;;;;15.13;8.82;;;;;;;-143.70;100.00;61379.03;737302;40;20351;-74
2021/07/02 00:33:33;;;;;;;12.48;8.52;;;;;;;-143.70;100.00;61379.03;737657;40;20088;-74
2021/07/02 00:34:04;;;;;;;13.95;8.90;;;;;;;-143.70;100.00;61379.03;738896;40;20189;-75
2021/07/02 00:34:34;;;;;;;16.30;9.32;;;;;;;-143.70;100.00;61379.03;739693;40;20106;-75
2021/07/02 00:35:05;;;;;;;14.95;9.63;;;;;;;-143.70;100.00;61379.03;739333;40;20036;-75
2021/07/02 00:35:36;;;;;;;16.00;9.48;;;;;;;-143.70;100.00;61379.03;739797;40;20427;-74
2021/07/02 00:36:06;;;;;;;15.43;9.38;;;;;;;-143.70;100.00;61379.03;738416;40;20073;-75
2021/07/02 00:36:37;;;;;;;14.02;9.05;;;;;;;-143.70;100.00;61379.03;739491;40;20041;-75
2021/07/02 00:37:07;;;;;;;16.38;9.52;;;;;;;-143.70;100.00;61379.03;736152;40;20037;-75
2021/07/02 00:37:38;;;;;;;16.80;9.95;;;;;;;-143.70;100.00;61379.03;737565;40;20133;-76
2021/07/02 00:38:09;;;;;;;14.43;9.00;;;;;;;-143.70;100.00;61379.03;736428;40;20075;-75
2021/07/02 00:38:40;;;;;;;13.85;9.32;;;;;;;-143.70;100.00;61379.03;737452;40;20038;-75
2021/07/02 00:39:10;;;;;;;15.68;9.70;;;;;;;-143.70;100.00;61379.03;737098;40;20025;-75
2021/07/02 00:39:41;;;;;;;14.07;9.73;;;;;;;-143.70;100.00;61379.03;736852;40;20049;-75
2021/07/02 00:40:12;;;;;;;18.60;9.75;;;;;;;-143.70;100.00;61379.03;738611;40;20212;-75
2021/07/02 00:40:43;;;;;;;14.75;9.93;;;;;;;-143.70;100.00;61379.03;738727;40;20152;-75
2021/07/02 00:41:13;;;;;;;14.98;9.45;;;;;;;-143.70;100.00;61379.03;738926;40;20024;-75
2021/07/02 00:41:44;;;;;;;15.68;9.98;;;;;;;-143.70;100.00;61379.03;738055;40;20187;-75
2021/07/02 00:42:14;;;;;;;14.70;9.75;;;;;;;-143.70;100.00;61379.03;739906;40;20028;-74
2021/07/02 00:42:51;;;;;;;16.65;9.80;;;;;;;-143.70;100.00;61379.03;740714;40;20203;-75
2021/07/02 00:43:29;;;;;;;19.67;11.55;;;;;;;-143.70;100.00;61379.03;741692;40;20275;-76
2021/07/02 00:43:59;;;;;;;16.05;10.07;;;;;;;-143.70;100.00;61379.03;739304;40;20041;-75
2021/07/02 00:44:36;;;;;;;18.40;10.63;;;;;;;-143.70;100.00;61379.03;738418;40;20033;-75
2021/07/02 00:45:07;;;;;;;17.60;10.50;;;;;;;-143.70;100.00;61379.03;738641;40;20424;-74
2021/07/02 00:45:38;;;;;;;21.13;10.30;;;;;;;-143.70;100.00;61379.03;738457;40;20123;-75
2021/07/02 00:46:08;;;;;;;15.18;9.93;;;;;;;-143.70;100.00;61379.03;741835;40;20047;-74
2021/07/02 00:46:39;;;;;;;15.02;10.35;;;;;;;-143.70;100.00;61379.03;740409;40;20045;-75
2021/07/02 00:47:11;;;;;;;15.20;9.90;;;;;;;-143.70;100.00;61379.03;742475;40;20033;-74
2021/07/02 00:47:42;;;;;;;18.67;9.95;;;;;;;-143.70;100.00;61379.03;740447;40;20031;-74
2021/07/02 00:48:13;;;;;;;16.05;10.23;;;;;;;-143.70;100.00;61379.03;741478;40;20278;-75
2021/07/02 00:48:44;;;;;;;19.38;11.30;;;;;;;-143.70;100.00;61379.03;739979;40;20235;-75
2021/07/02 00:49:14;;;;;;;14.80;10.85;;;;;;;-143.70;100.00;61379.03;740980;40;20074;-75
2021/07/02 00:49:45;;;;;;;20.35;10.60;;;;;;;-143.70;100.00;61379.03;740325;40;20028;-76
2021/07/02 00:50:15;;;;;;;16.67;10.10;;;;;;;-143.70;100.00;61379.03;741329;40;20462;-75
2021/07/02 00:50:48;;;;;;;14.73;9.73;;;;;;;-143.70;100.00;61379.03;740391;40;20040;-75
2021/07/02 00:51:20;;;;;;;17.08;10.43;;;;;;;-143.70;100.00;61379.03;740197;40;20614;-74
2021/07/02 00:51:50;;;;;;;16.42;10.02;;;;;;;-143.70;100.00;61379.03;740651;40;20037;-76
2021/07/02 00:52:22;;;;;;;17.45;9.90;;;;;;;-143.70;100.00;61379.03;741948;40;20016;-76
2021/07/02 00:52:53;;;;;;;13.93;10.02;;;;;;;-143.70;100.00;61379.03;741465;40;20037;-75
2021/07/02 00:53:23;;;;;;;16.17;10.18;;;;;;;-143.70;100.00;61379.03;741142;40;20028;-75
2021/07/02 00:53:54;;;;;;;19.77;10.60;;;;;;;-143.70;100.00;61379.03;741964;40;20073;-76
2021/07/02 00:54:24;;;;;;;17.80;10.15;;;;;;;-143.70;100.00;61379.03;739751;40;20032;-76
2021/07/02 00:54:55;;;;;;;15.80;10.25;;;;;;;-143.70;100.00;61379.03;741734;40;20028;-76
2021/07/02 00:55:26;;;;;;;18.02;10.48;;;;;;;-143.70;100.00;61379.03;740874;40;20473;-77
2021/07/02 00:55:57;;;;;;;21.40;10.55;;;;;;;-143.70;100.00;61379.03;741984;40;20051;-76
2021/07/02 00:56:28;;;;;;;14.73;10.05;;;;;;;-143.70;100.00;61379.03;740587;40;20239;-76
2021/07/02 00:57:00;;;;;;;15.48;9.40;;;;;;;-143.70;100.00;61379.03;741989;40;20122;-77
2021/07/02 00:57:32;;;;;;;16.77;9.35;;;;;;;-143.70;100.00;61379.03;740237;40;20029;-75
2021/07/02 00:58:04;;;;;;;15.25;10.00;;;;;;;-143.70;100.00;61379.03;738692;40;20651;-74
2021/07/02 00:58:35;;;;;;;15.88;9.02;;;;;;;-143.70;100.00;61379.03;738102;40;20025;-75
2021/07/02 00:59:05;;;;;;;15.60;9.45;;;;;;;-143.70;100.00;61379.03;739752;40;20182;-75
2021/07/02 00:59:37;;;;;;;16.73;9.45;;;;;;;-143.70;100.00;61379.03;738366;40;20068;-75
2021/07/02 01:00:09;;;;;;;18.15;9.68;;;;;;;-143.70;100.00;61379.03;743122;40;20033;-75
2021/07/02 01:00:39;;;;;;;15.77;9.85;;;;;;;-143.70;100.00;61379.03;740126;40;20107;-75
2021/07/02 01:01:16;;;;;;;18.70;9.50;;;;;;;-143.70;100.00;61379.03;739543;40;20525;-75
2021/07/02 01:01:47;;;;;;;15.35;9.85;;;;;;;-143.70;100.00;61379.03;738736;40;20036;-75
2021/07/02 01:02:18;;;;;;;18.67;9.77;;;;;;;-143.70;100.00;61379.03;739039;40;20032;-75
2021/07/02 01:03:04;;;;;;;16.45;10.10;;;;;;;-143.70;100.00;61379.03;738865;40;20084;-78
2021/07/02 01:03:34;;;;;;;18.52;10.20;;;;;;;-143.70;100.00;61379.03;739282;40;20180;-75
2021/07/02 01:04:04;;;;;;;15.88;10.27;;;;;;;-143.70;100.00;61379.03;742216;40;20039;-78
2021/07/02 01:04:35;;;;;;;17.50;9.25;;;;;;;-143.70;100.00;61379.03;740126;40;20033;-76
2021/07/02 01:05:07;;;;;;;17.92;10.43;;;;;;;-143.70;100.00;61379.03;741577;40;20105;-76
2021/07/02 01:05:37;;;;;;;17.45;10.13;;;;;;;-143.70;100.00;61379.03;739972;40;20275;-76
2021/07/02 01:06:09;;;;;;;20.10;10.00;;;;;;;-143.70;100.00;61379.03;741662;40;20036;-76
2021/07/02 01:06:40;;;;;;;18.92;9.45;;;;;;;-143.70;100.00;61379.03;740495;40;20036;-75
2021/07/02 01:07:12;;;;;;;15.98;9.40;;;;;;;-143.70;100.00;61379.03;742019;40;20025;-76
2021/07/02 01:07:43;;;;;;;15.68;9.65;;;;;;;-143.70;100.00;61379.03;741112;40;20630;-72
2021/07/02 01:08:14;;;;;;;20.63;10.45;;;;;;;-143.70;100.00;61379.03;741750;40;20057;-75
2021/07/02 01:08:44;;;;;;;14.60;10.02;;;;;;;-143.70;100.00;61379.03;741102;40;20491;-75
2021/07/02 01:09:15;;;;;;;17.48;10.15;;;;;;;-143.70;100.00;61379.03;741324;39;20334;-76
2021/07/02 01:09:46;;;;;;;17.00;10.45;;;;;;;-143.70;100.00;61379.03;740724;40;20171;-76
2021/07/02 01:10:18;;;;;;;17.98;10.00;;;;;;;-143.70;100.00;61379.03;739001;40;20053;-75
2021/07/02 01:10:49;;;;;;;18.58;9.68;;;;;;;-143.70;100.00;61379.03;738224;40;20041;-75
2021/07/02 01:11:19;;;;;;;18.52;10.85;;;;;;;-143.70;100.00;61379.03;737646;40;20014;-75
2021/07/02 01:11:51;;;;;;;15.63;10.25;;;;;;;-143.70;100.00;61379.03;740487;40;20127;-75
2021/07/02 01:12:22;;;;;;;21.17;10.75;;;;;;;-143.70;100.00;61379.03;740345;40;20033;-74
2021/07/02 01:12:52;;;;;;;18.02;10.30;;;;;;;-143.70;100.00;61379.03;737238;40;20033;-77
2021/07/02 01:13:23;;;;;;;15.20;10.60;;;;;;;-143.70;100.00;61379.03;738603;40;20037;-77
2021/07/02 01:13:56;;;;;;;16.30;10.77;;;;;;;-143.70;100.00;61379.03;738648;40;20077;-76
2021/07/02 01:14:27;;;;;;;17.17;10.18;;;;;;;-143.70;100.00;61379.03;738540;40;20591;-77
2021/07/02 01:14:57;;;;;;;17.50;10.82;;;;;;;-143.70;100.00;61379.03;741446;40;20029;-77
2021/07/02 01:15:28;;;;;;;15.73;10.13;;;;;;;-143.70;100.00;61379.03;738237;40;20021;-77
2021/07/02 01:15:58;;;;;;;15.38;10.07;;;;;;;-143.70;100.00;61379.03;742953;40;20060;-77
2021/07/02 01:16:29;;;;;;;15.85;10.40;;;;;;;-143.70;100.00;61379.03;741561;40;20113;-78
2021/07/02 01:17:00;;;;;;;18.15;9.73;;;;;;;-143.70;100.00;61379.03;742090;40;20028;-77
2021/07/02 01:17:30;;;;;;;15.05;9.52;;;;;;;-143.70;100.00;61379.03;740432;40;20036;-75
2021/07/02 01:18:08;;;;;;;13.93;9.45;;;;;;;-143.70;100.00;61379.03;741819;40;20073;-74
2021/07/02 01:18:39;;;;;;;17.13;9.90;;;;;;;-143.70;100.00;61379.03;739798;40;20028;-76
2021/07/02 01:19:09;;;;;;;16.35;10.52;;;;;;;-143.70;100.00;61379.03;741579;40;20040;-76
2021/07/02 01:19:58;;;;;;;15.85;10.30;;;;;;;-143.70;100.00;61379.03;739237;40;20072;-76
2021/07/02 01:20:29;;;;;;;17.83;10.75;;;;;;;-143.70;100.00;61379.03;737924;40;20032;-77
2021/07/02 01:20:59;;;;;;;19.85;11.02;;;;;;;-143.70;100.00;61379.03;739593;40;20184;-76
2021/07/02 01:21:30;;;;;;;15.95;10.73;;;;;;;-143.70;100.00;61379.03;737986;40;20033;-76
2021/07/02 01:22:01;;;;;;;17.80;10.13;;;;;;;-143.70;100.00;61379.03;740136;40;20085;-76
2021/07/02 01:22:31;;;;;;;17.75;10.30;;;;;;;-143.70;100.00;61379.03;740388;40;20037;-77
2021/07/02 01:23:03;;;;;;;23.17;10.40;;;;;;;-143.70;100.00;61379.03;743805;40;20430;-77
2021/07/02 01:23:33;;;;;;;20.77;9.50;;;;;;;-143.70;100.00;61379.03;740919;40;20032;-77
2021/07/02 01:24:04;;;;;;;20.50;10.15;;;;;;;-143.70;100.00;61379.03;742671;40;20073;-76
2021/07/02 01:24:35;;;;;;;17.08;10.30;;;;;;;-143.70;100.00;61379.03;738697;40;20040;-76
2021/07/02 01:25:05;;;;;;;17.85;10.27;;;;;;;-143.70;100.00;61379.03;739659;40;20025;-76
2021/07/02 01:25:36;;;;;;;17.27;9.40;;;;;;;-143.70;100.00;61379.03;737909;40;20036;-77
2021/07/02 01:26:08;;;;;;;22.33;9.85;;;;;;;-143.70;100.00;61379.03;739605;40;20025;-76
2021/07/02 01:26:39;;;;;;;16.30;10.02;;;;;;;-143.70;100.00;61379.03;740108;40;20033;-76
2021/07/02 01:27:12;;;;;;;19.73;9.77;;;;;;;-143.70;100.00;61379.03;741892;40;20067;-76
2021/07/02 01:27:43;;;;;;;13.98;9.93;;;;;;;-143.70;100.00;61379.03;738546;40;20232;-75
2021/07/02 01:28:15;;;;;;;15.13;10.07;;;;;;;-143.70;100.00;61379.03;737566;40;20476;-76
2021/07/02 01:28:46;;;;;;;19.67;10.57;;;;;;;-143.70;100.00;61379.03;739039;40;20453;-76
2021/07/02 01:29:17;;;;;;;21.88;10.13;;;;;;;-143.70;100.00;61379.03;738804;40;20099;-76
2021/07/02 01:29:49;;;;;;;16.70;10.82;;;;;;;-143.70;100.00;61379.03;741028;40;20064;-77
2021/07/02 01:30:20;;;;;;;19.33;11.10;;;;;;;-143.70;100.00;61379.03;740287;40;20431;-77
2021/07/02 01:30:50;;;;;;;17.67;10.85;;;;;;;-143.70;100.00;61379.03;738486;40;20029;-76
2021/07/02 01:31:21;;;;;;;17.23;10.60;;;;;;;-143.70;100.00;61379.03;738741;40;20025;-77
2021/07/02 01:31:52;;;;;;;20.83;10.15;;;;;;;-143.70;100.00;61379.03;739259;40;20029;-77
2021/07/02 01:32:22;;;;;;;18.00;10.75;;;;;;;-143.70;100.00;61379.03;741747;40;20209;-76
2021/07/02 01:32:53;;;;;;;19.40;10.20;;;;;;;-143.70;100.00;61379.03;741318;40;20349;-76
2021/07/02 01:33:24;;;;;;;16.42;9.52;;;;;;;-143.70;100.00;61379.03;739309;40;20025;-76
2021/07/02 01:33:54;;;;;;;17.88;10.77;;;;;;;-143.70;100.00;61379.03;739098;40;20407;-76
2021/07/02 01:34:49;;;;;;;19.73;10.70;;;;;;;-143.70;100.00;61379.03;737409;40;20029;-76
2021/07/02 01:35:20;;;;;;;17.15;9.65;;;;;;;-143.70;100.00;61379.03;736944;40;20033;-76
2021/07/02 01:35:50;;;;;;;20.52;10.50;;;;;;;-143.70;100.00;61379.03;738993;40;20054;-76
2021/07/02 01:36:23;;;;;;;18.90;11.23;;;;;;;-143.70;100.00;61379.03;738200;40;20029;-76
2021/07/02 01:36:54;;;;;;;18.77;10.95;;;;;;;-143.70;100.00;61379.03;738708;40;20025;-77
2021/07/02 01:37:24;;;;;;;18.77;10.95;;;;;;;-143.70;100.00;61379.03;738819;40;20029;-76
2021/07/02 01:37:55;;;;;;;18.77;10.57;;;;;;;-143.70;100.00;61379.03;737933;40;20070;-77
2021/07/02 01:38:25;;;;;;;18.85;10.50;;;;;;;-143.70;100.00;61379.03;741901;40;20041;-77
2021/07/02 01:38:56;;;;;;;13.80;9.50;;;;;;;-143.70;100.00;61379.03;740873;40;20061;-77
2021/07/02 01:39:26;;;;;;;18.60;9.90;;;;;;;-143.70;100.00;61379.03;741546;40;20141;-76
2021/07/02 01:39:57;;;;;;;17.80;10.27;;;;;;;-143.70;100.00;61379.03;742295;40;20238;-76
2021/07/02 01:40:28;;;;;;;21.80;11.38;;;;;;;-143.70;100.00;61379.03;741563;40;20409;-76
2021/07/02 01:40:58;;;;;;;15.60;9.75;;;;;;;-143.70;100.00;61379.03;738377;40;20147;-76
2021/07/02 01:41:29;;;;;;;18.23;10.75;;;;;;;-143.70;100.00;61379.03;739518;40;20096;-75
2021/07/02 01:42:00;;;;;;;17.92;10.55;;;;;;;-143.70;100.00;61379.03;738287;40;20369;-76
2021/07/02 01:42:30;;;;;;;19.38;10.15;;;;;;;-143.70;100.00;61379.03;739754;40;20084;-76
2021/07/02 01:43:02;;;;;;;18.10;10.30;;;;;;;-143.70;100.00;61379.03;738125;40;20114;-76
2021/07/02 01:43:32;;;;;;;17.25;10.10;;;;;;;-143.70;100.00;61379.03;739682;40;20446;-75
2021/07/02 01:44:03;;;;;;;19.05;11.20;;;;;;;-143.70;100.00;61379.03;731806;40;20019;-76
2021/07/02 01:44:36;;;;;;;17.75;10.88;;;;;;;-143.70;100.00;61379.03;733560;40;20033;-75
2021/07/02 01:45:08;;;;;;;19.98;11.52;;;;;;;-143.70;100.00;61379.03;736732;40;20164;-76
2021/07/02 01:45:38;;;;;;;21.00;11.75;;;;;;;-143.70;100.00;61379.03;737698;40;20092;-76
2021/07/02 01:46:09;;;;;;;19.15;11.32;;;;;;;-143.70;100.00;61379.03;739491;40;20029;-76
2021/07/02 01:46:39;;;;;;;17.75;11.15;;;;;;;-143.70;100.00;61379.03;738110;40;20216;-77
2021/07/02 01:47:10;;;;;;;20.20;11.32;;;;;;;-143.70;100.00;61379.03;740603;40;20040;-76
2021/07/02 01:47:40;;;;;;;20.23;11.30;;;;;;;-143.70;100.00;61379.03;739860;40;20036;-76
2021/07/02 01:48:11;;;;;;;20.65;10.55;;;;;;;-143.70;100.00;61379.03;739930;40;20159;-76
2021/07/02 01:48:42;;;;;;;21.13;12.05;;;;;;;-143.70;100.00;61379.03;738344;40;20032;-75
2021/07/02 01:49:12;;;;;;;24.58;10.68;;;;;;;-143.70;100.00;61379.03;739911;40;20151;-76
2021/07/02 01:49:43;;;;;;;22.23;11.73;;;;;;;-143.70;100.00;61379.03;738758;40;20091;-74
2021/07/02 01:50:14;;;;;;;19.60;10.50;;;;;;;-143.70;100.00;61379.03;739669;40;20025;-75
2021/07/02 01:50:44;;;;;;;21.77;11.10;;;;;;;-143.70;100.00;61379.03;738410;40;20342;-76
2021/07/02 01:51:15;;;;;;;20.48;11.07;;;;;;;-143.70;100.00;61379.03;738996;40;20057;-76
2021/07/02 01:51:45;;;;;;;20.00;11.68;;;;;;;-143.70;100.00;61379.03;739363;40;20087;-76
2021/07/02 01:52:16;;;;;;;18.48;11.70;;;;;;;-143.70;100.00;61379.03;736856;40;20021;-76
2021/07/02 01:52:48;;;;;;;17.65;10.35;;;;;;;-143.70;100.00;61379.03;737368;40;20443;-75
2021/07/02 01:53:18;;;;;;;18.58;10.43;;;;;;;-143.70;100.00;61379.03;734628;40;20089;-76
2021/07/02 01:53:49;;;;;;;19.52;10.85;;;;;;;-143.70;100.00;61379.03;737853;40;20081;-75
2021/07/02 01:54:19;;;;;;;19.02;11.05;;;;;;;-143.70;100.00;61379.03;738804;40;20037;-76
2021/07/02 01:54:50;;;;;;;18.90;10.10;;;;;;;-143.70;100.00;61379.03;739600;40;20065;-75
2021/07/02 01:55:22;;;;;;;22.45;11.65;;;;;;;-143.70;100.00;61379.03;736302;40;20049;-75
2021/07/02 01:55:53;;;;;;;20.20;11.20;;;;;;;-143.70;100.00;61379.03;736930;40;20056;-75
2021/07/02 01:56:24;;;;;;;19.33;10.80;;;;;;;-143.70;100.00;61379.03;735709;40;20439;-75
2021/07/02 01:56:55;;;;;;;21.83;11.80;;;;;;;-143.70;100.00;61379.03;737873;40;20026;-76
2021/07/02 01:57:28;;;;;;;22.83;11.07;;;;;;;-143.70;100.00;61379.03;738872;40;20021;-77
2021/07/02 01:57:58;;;;;;;17.92;11.43;;;;;;;-143.70;100.00;61379.03;737997;40;20032;-74
2021/07/02 01:58:29;;;;;;;19.00;11.23;;;;;;;-143.70;100.00;61379.03;738721;40;20273;-76
2021/07/02 01:58:59;;;;;;;21.48;10.73;;;;;;;-143.70;100.00;61379.03;739646;40;20029;-76
2021/07/02 01:59:30;;;;;;;19.50;11.88;;;;;;;-143.70;100.00;61379.03;738433;40;20516;-76
2021/07/02 02:00:00;;;;;;;17.38;11.32;;;;;;;-143.70;100.00;61379.03;739680;40;20069;-77
2021/07/02 02:00:31;;;;;;;26.20;10.90;;;;;;;-143.70;100.00;61379.03;737006;40;20021;-76
2021/07/02 02:01:02;;;;;;;21.13;11.82;;;;;;;-143.70;100.00;61379.03;739958;40;20036;-76
2021/07/02 02:01:32;;;;;;;18.98;11.70;;;;;;;-143.70;100.00;61379.03;738422;40;20037;-76
2021/07/02 02:02:03;;;;;;;21.17;11.57;;;;;;;-143.70;100.00;61379.03;739725;40;20361;-76
2021/07/02 02:02:33;;;;;;;24.20;10.95;;;;;;;-143.70;100.00;61379.03;738340;40;20161;-76
2021/07/02 02:03:04;;;;;;;19.70;11.25;;;;;;;-143.70;100.00;61379.03;739967;40;20399;-76
2021/07/02 02:03:34;;;;;;;22.38;12.32;;;;;;;-143.70;100.00;61379.03;738693;40;20065;-75
2021/07/02 02:04:05;;;;;;;23.27;12.23;;;;;;;-143.70;100.00;61379.03;737390;40;20049;-76
2021/07/02 02:04:35;;;;;;;21.40;12.50;;;;;;;-143.70;100.00;61379.03;735576;40;20041;-76
2021/07/02 02:05:06;;;;;;;20.52;12.00;;;;;;;-143.70;100.00;61379.03;737208;40;20037;-76
2021/07/02 02:05:37;;;;;;;17.95;11.10;;;;;;;-143.70;100.00;61379.03;735379;40;20030;-76
2021/07/02 02:06:07;;;;;;;20.60;10.93;;;;;;;-143.70;100.00;61379.03;739381;40;20069;-77
2021/07/02 02:06:38;;;;;;;19.52;10.93;;;;;;;-143.70;100.00;61379.03;735279;40;20107;-75
2021/07/02 02:07:09;;;;;;;23.48;10.77;;;;;;;-143.70;100.00;61379.03;736866;40;20045;-76
2021/07/02 02:07:39;;;;;;;19.60;11.73;;;;;;;-143.70;100.00;61379.03;738227;40;20021;-76
2021/07/02 02:08:10;;;;;;;19.02;11.05;;;;;;;-143.70;100.00;61379.03;737625;40;20061;-76
2021/07/02 02:08:41;;;;;;;19.58;10.80;;;;;;;-143.70;100.00;61379.03;737616;40;20081;-76
2021/07/02 02:09:11;;;;;;;21.33;11.48;;;;;;;-143.70;100.00;61379.03;737559;40;20048;-76
2021/07/02 02:09:42;;;;;;;17.27;11.52;;;;;;;-143.70;100.00;61379.03;736849;40;20416;-76
2021/07/02 02:10:12;;;;;;;22.30;12.82;;;;;;;-143.70;100.00;61379.03;739118;40;20060;-76
2021/07/02 02:10:43;;;;;;;20.98;11.77;;;;;;;-143.70;100.00;61379.03;738785;40;20370;-76
2021/07/02 02:11:14;;;;;;;24.42;12.75;;;;;;;-143.70;100.00;61379.03;739458;40;20549;-76
2021/07/02 02:11:44;;;;;;;24.40;13.35;;;;;;;-143.70;100.00;61379.03;738673;40;20064;-76
2021/07/02 02:12:15;;;;;;;24.55;13.93;;;;;;;-143.70;100.00;61379.03;739393;40;20145;-76
2021/07/02 02:12:45;;;;;;;22.85;12.07;;;;;;;-143.70;100.00;61379.03;738930;40;20114;-77
2021/07/02 02:13:16;;;;;;;21.08;12.13;;;;;;;-143.70;100.00;61379.03;739851;40;20037;-76
2021/07/02 02:13:46;;;;;;;21.67;13.20;;;;;;;-143.70;100.00;61379.03;739179;40;20055;-76
2021/07/02 02:14:17;;;;;;;22.95;13.40;;;;;;;-143.70;100.00;61379.03;736115;40;20041;-76
2021/07/02 02:14:47;;;;;;;26.73;13.93;;;;;;;-143.70;100.00;61379.03;736858;40;20450;-75
2021/07/02 02:15:18;;;;;;;25.13;13.13;;;;;;;-143.70;100.00;61379.03;735972;40;20100;-77
2021/07/02 02:15:48;;;;;;;21.80;12.88;;;;;;;-143.70;100.00;61379.03;734768;40;20033;-77
2021/07/02 02:16:19;;;;;;;23.70;13.02;;;;;;;-143.70;100.00;61379.03;740599;40;20114;-76
2021/07/02 02:16:49;;;;;;;17.92;11.98;;;;;;;-143.70;100.00;61379.03;738393;40;20149;-76
2021/07/02 02:17:20;;;;;;;26.55;13.70;;;;;;;-143.70;100.00;61379.03;739284;40;20159;-76
2021/07/02 02:17:50;;;;;;;21.48;13.13;;;;;;;-143.70;100.00;61379.03;737693;40;20157;-77
2021/07/02 02:18:21;;;;;;;21.15;12.65;;;;;;;-143.70;100.00;61379.03;740110;40;20032;-77
2021/07/02 02:18:52;;;;;;;25.90;13.65;;;;;;;-143.70;100.00;61379.03;738643;40;20049;-76
2021/07/02 02:19:23;;;;;;;22.85;13.30;;;;;;;-143.70;100.00;61379.03;739252;40;20040;-75
2021/07/02 02:19:54;;;;;;;24.40;12.43;;;;;;;-143.70;100.00;61379.03;739041;40;20342;-76
2021/07/02 02:20:24;;;;;;;24.02;13.00;;;;;;;-143.70;100.00;61379.03;738686;40;20093;-76